SWA3996 KAUS-KDCA
Flight info
| Callsign | SWA3996 |
|---|---|
| Flight time | 2h 43m |
| Altitude | 35000 |
| Route | ILEXY4 ZENZI IAH GUSTI Q22 CATLN Q56 KIWII WAVES CAPSS4 |
| Aircraft | B738/M-SADE2E3GIJ4RWZ/LB1D1 |
Departure
| Time | 2026-04-30 02:13 |
|---|---|
| Airport | Austin Bergstrom International Airport (KAUS) |
Arrival
| Time | 2026-04-30 04:56 |
|---|---|
| Airport | Ronald Reagan Washington National Airport (KDCA) |
| Time | Latitude | Longitude | Altitude | Speed | Heading |
|---|---|---|---|---|---|
| 2026-04-30 01:38 | 30.20147 | -97.66812 | 515 ft | 0 kts | 16° |
| 2026-04-30 01:59 | 30.20143 | -97.66813 | 515 ft | 2 kts | 17° |
| 2026-04-30 01:59 | 30.20126 | -97.66821 | 515 ft | 3 kts | 25° |
| 2026-04-30 02:00 | 30.20108 | -97.66832 | 514 ft | 3 kts | 39° |
| 2026-04-30 02:00 | 30.20095 | -97.66848 | 515 ft | 3 kts | 66° |
| 2026-04-30 02:00 | 30.20092 | -97.66865 | 515 ft | 2 kts | 105° |
| 2026-04-30 02:00 | 30.20093 | -97.66869 | 515 ft | 0 kts | 109° |
| 2026-04-30 02:03 | 30.20091 | -97.66864 | 515 ft | 4 kts | 109° |
| 2026-04-30 02:03 | 30.20078 | -97.66812 | 514 ft | 8 kts | 105° |
| 2026-04-30 02:04 | 30.20072 | -97.66769 | 513 ft | 0 kts | 98° |
| 2026-04-30 02:04 | 30.20072 | -97.66765 | 513 ft | 0 kts | 98° |
| 2026-04-30 02:04 | 30.20071 | -97.66765 | 513 ft | 0 kts | 98° |
| 2026-04-30 02:04 | 30.20071 | -97.66762 | 513 ft | 1 kts | 98° |
| 2026-04-30 02:05 | 30.20070 | -97.66753 | 513 ft | 1 kts | 98° |
| 2026-04-30 02:05 | 30.20060 | -97.66711 | 512 ft | 10 kts | 118° |
| 2026-04-30 02:05 | 30.20019 | -97.66690 | 511 ft | 14 kts | 171° |
| 2026-04-30 02:05 | 30.19920 | -97.66662 | 508 ft | 14 kts | 124° |
| 2026-04-30 02:06 | 30.19909 | -97.66546 | 507 ft | 15 kts | 89° |
| 2026-04-30 02:06 | 30.19911 | -97.66426 | 505 ft | 15 kts | 89° |
| 2026-04-30 02:06 | 30.19914 | -97.66308 | 502 ft | 15 kts | 88° |
| 2026-04-30 02:06 | 30.19917 | -97.66178 | 489 ft | 17 kts | 88° |
| 2026-04-30 02:07 | 30.19917 | -97.66036 | 487 ft | 18 kts | 103° |
| 2026-04-30 02:07 | 30.19810 | -97.65987 | 489 ft | 18 kts | 179° |
| 2026-04-30 02:07 | 30.19688 | -97.65984 | 485 ft | 17 kts | 179° |
| 2026-04-30 02:07 | 30.19571 | -97.65981 | 492 ft | 17 kts | 179° |
| 2026-04-30 02:08 | 30.19458 | -97.65977 | 487 ft | 16 kts | 178° |
| 2026-04-30 02:08 | 30.19345 | -97.65974 | 493 ft | 20 kts | 179° |
| 2026-04-30 02:08 | 30.19170 | -97.65969 | 490 ft | 27 kts | 179° |
| 2026-04-30 02:08 | 30.18990 | -97.65965 | 489 ft | 25 kts | 178° |
| 2026-04-30 02:09 | 30.18822 | -97.65961 | 485 ft | 23 kts | 179° |
| 2026-04-30 02:09 | 30.18660 | -97.65956 | 481 ft | 23 kts | 179° |
| 2026-04-30 02:09 | 30.18501 | -97.65953 | 483 ft | 22 kts | 179° |
| 2026-04-30 02:09 | 30.18347 | -97.65948 | 477 ft | 22 kts | 178° |
| 2026-04-30 02:10 | 30.18189 | -97.65945 | 478 ft | 23 kts | 179° |
| 2026-04-30 02:10 | 30.18031 | -97.65940 | 480 ft | 22 kts | 179° |
| 2026-04-30 02:10 | 30.17921 | -97.65905 | 480 ft | 11 kts | 123° |
| 2026-04-30 02:10 | 30.17917 | -97.65874 | 480 ft | 9 kts | 94° |
| 2026-04-30 02:11 | 30.17917 | -97.65852 | 482 ft | 0 kts | 89° |
| 2026-04-30 02:12 | 30.17918 | -97.65808 | 483 ft | 14 kts | 89° |
| 2026-04-30 02:12 | 30.17925 | -97.65736 | 479 ft | 2 kts | 37° |
| 2026-04-30 02:12 | 30.18058 | -97.65729 | 479 ft | 52 kts | 359° |
| 2026-04-30 02:12 | 30.18736 | -97.65745 | 486 ft | 139 kts | 359° |
| 2026-04-30 02:13 | 30.19902 | -97.65777 | 892 ft | 188 kts | 360° |
| 2026-04-30 02:13 | 30.21294 | -97.65802 | 1678 ft | 211 kts | 6° |
| 2026-04-30 02:13 | 30.22817 | -97.65525 | 2263 ft | 234 kts | 14° |
| 2026-04-30 02:13 | 30.24450 | -97.64951 | 2772 ft | 251 kts | 24° |
| 2026-04-30 02:14 | 30.25910 | -97.63882 | 3252 ft | 249 kts | 44° |
| 2026-04-30 02:14 | 30.27085 | -97.62382 | 3502 ft | 258 kts | 56° |
| 2026-04-30 02:14 | 30.27897 | -97.60536 | 3922 ft | 259 kts | 75° |
| 2026-04-30 02:14 | 30.28151 | -97.58461 | 4292 ft | 263 kts | 92° |
| 2026-04-30 02:15 | 30.28122 | -97.56287 | 4596 ft | 272 kts | 94° |
| 2026-04-30 02:15 | 30.28063 | -97.54088 | 4996 ft | 276 kts | 93° |
| 2026-04-30 02:15 | 30.27985 | -97.51869 | 5162 ft | 276 kts | 93° |
| 2026-04-30 02:15 | 30.27912 | -97.49687 | 5556 ft | 267 kts | 92° |
| 2026-04-30 02:16 | 30.27690 | -97.47588 | 5858 ft | 254 kts | 102° |
| 2026-04-30 02:16 | 30.27329 | -97.45598 | 6304 ft | 254 kts | 100° |
| 2026-04-30 02:16 | 30.27019 | -97.43584 | 6721 ft | 254 kts | 97° |
| 2026-04-30 02:16 | 30.26793 | -97.41571 | 7132 ft | 251 kts | 94° |
| 2026-04-30 02:17 | 30.26637 | -97.39551 | 7555 ft | 254 kts | 92° |
| 2026-04-30 02:17 | 30.26534 | -97.37495 | 7991 ft | 257 kts | 90° |
| 2026-04-30 02:17 | 30.26471 | -97.35416 | 8423 ft | 260 kts | 89° |
| 2026-04-30 02:17 | 30.26439 | -97.33315 | 8862 ft | 262 kts | 87° |
| 2026-04-30 02:18 | 30.26431 | -97.31206 | 9302 ft | 263 kts | 86° |
| 2026-04-30 02:18 | 30.26440 | -97.29080 | 9769 ft | 265 kts | 85° |
| 2026-04-30 02:18 | 30.26457 | -97.27371 | 10100 ft | 266 kts | 85° |
| 2026-04-30 02:18 | 30.26486 | -97.25218 | 10526 ft | 271 kts | 85° |
| 2026-04-30 02:19 | 30.26529 | -97.22926 | 10709 ft | 301 kts | 85° |
| 2026-04-30 02:19 | 30.26582 | -97.20404 | 10920 ft | 327 kts | 85° |
| 2026-04-30 02:19 | 30.26643 | -97.17660 | 11110 ft | 354 kts | 85° |
| 2026-04-30 02:19 | 30.26708 | -97.14724 | 11288 ft | 378 kts | 86° |
| 2026-04-30 02:20 | 30.26778 | -97.11611 | 11597 ft | 394 kts | 86° |
| 2026-04-30 02:20 | 30.26845 | -97.08398 | 12122 ft | 403 kts | 86° |
| 2026-04-30 02:20 | 30.26909 | -97.05130 | 12735 ft | 409 kts | 86° |
| 2026-04-30 02:20 | 30.26975 | -97.01817 | 13336 ft | 416 kts | 86° |
| 2026-04-30 02:21 | 30.27046 | -96.98442 | 13905 ft | 423 kts | 87° |
| 2026-04-30 02:21 | 30.27120 | -96.95019 | 14449 ft | 428 kts | 87° |
| 2026-04-30 02:21 | 30.27196 | -96.91568 | 15036 ft | 432 kts | 87° |
| 2026-04-30 02:21 | 30.27273 | -96.88075 | 15605 ft | 437 kts | 88° |
| 2026-04-30 02:22 | 30.27351 | -96.84542 | 16149 ft | 442 kts | 88° |
| 2026-04-30 02:22 | 30.27430 | -96.80972 | 16688 ft | 447 kts | 88° |
| 2026-04-30 02:22 | 30.27508 | -96.77356 | 17236 ft | 452 kts | 88° |
| 2026-04-30 02:22 | 30.27586 | -96.73700 | 17771 ft | 456 kts | 88° |
| 2026-04-30 02:23 | 30.27664 | -96.70016 | 18298 ft | 461 kts | 88° |
| 2026-04-30 02:23 | 30.27741 | -96.66291 | 18773 ft | 464 kts | 88° |
| 2026-04-30 02:23 | 30.27817 | -96.62603 | 19261 ft | 467 kts | 88° |
| 2026-04-30 02:23 | 30.27894 | -96.58829 | 19736 ft | 471 kts | 88° |
| 2026-04-30 02:24 | 30.27970 | -96.55026 | 20218 ft | 474 kts | 88° |
| 2026-04-30 02:24 | 30.28045 | -96.51194 | 20674 ft | 478 kts | 88° |
| 2026-04-30 02:24 | 30.28120 | -96.47347 | 21121 ft | 481 kts | 88° |
| 2026-04-30 02:24 | 30.28194 | -96.43456 | 21550 ft | 485 kts | 88° |
| 2026-04-30 02:25 | 30.28268 | -96.39551 | 21981 ft | 488 kts | 88° |
| 2026-04-30 02:25 | 30.28341 | -96.35606 | 22412 ft | 491 kts | 88° |
| 2026-04-30 02:25 | 30.28413 | -96.31650 | 22822 ft | 494 kts | 88° |
| 2026-04-30 02:25 | 30.28485 | -96.27647 | 23216 ft | 498 kts | 88° |
| 2026-04-30 02:26 | 30.28556 | -96.23637 | 23543 ft | 501 kts | 88° |
| 2026-04-30 02:26 | 30.28626 | -96.19600 | 23851 ft | 504 kts | 88° |
| 2026-04-30 02:26 | 30.28695 | -96.15520 | 24165 ft | 507 kts | 88° |
| 2026-04-30 02:26 | 30.28735 | -96.11445 | 24481 ft | 510 kts | 91° |
| 2026-04-30 02:27 | 30.28356 | -96.07355 | 24774 ft | 513 kts | 101° |
| 2026-04-30 02:27 | 30.27470 | -96.03344 | 25101 ft | 514 kts | 110° |
| 2026-04-30 02:27 | 30.26118 | -95.99525 | 25416 ft | 514 kts | 120° |
| 2026-04-30 02:27 | 30.24454 | -95.95923 | 25748 ft | 515 kts | 122° |
| 2026-04-30 02:28 | 30.22993 | -95.92872 | 26002 ft | 517 kts | 122° |
| 2026-04-30 02:28 | 30.21238 | -95.89224 | 26315 ft | 520 kts | 122° |
| 2026-04-30 02:28 | 30.19486 | -95.85554 | 26633 ft | 523 kts | 121° |
| 2026-04-30 02:28 | 30.17737 | -95.81843 | 26955 ft | 525 kts | 121° |
| 2026-04-30 02:29 | 30.15996 | -95.78113 | 27267 ft | 528 kts | 121° |
| 2026-04-30 02:29 | 30.14255 | -95.74363 | 27561 ft | 530 kts | 121° |
| 2026-04-30 02:29 | 30.12512 | -95.70602 | 27844 ft | 533 kts | 121° |
| 2026-04-30 02:29 | 30.10761 | -95.66829 | 28115 ft | 535 kts | 121° |
| 2026-04-30 02:30 | 30.08994 | -95.63029 | 28380 ft | 537 kts | 121° |
| 2026-04-30 02:30 | 30.07218 | -95.59218 | 28632 ft | 540 kts | 121° |
| 2026-04-30 02:30 | 30.05437 | -95.55400 | 28876 ft | 542 kts | 121° |
| 2026-04-30 02:30 | 30.03641 | -95.51555 | 29154 ft | 543 kts | 121° |
| 2026-04-30 02:31 | 30.01855 | -95.47735 | 29508 ft | 543 kts | 121° |
| 2026-04-30 02:31 | 30.00061 | -95.43901 | 29899 ft | 542 kts | 121° |
| 2026-04-30 02:31 | 29.98306 | -95.40056 | 30221 ft | 542 kts | 116° |
| 2026-04-30 02:31 | 29.96945 | -95.35981 | 30506 ft | 544 kts | 107° |
| 2026-04-30 02:32 | 29.96075 | -95.31801 | 30844 ft | 543 kts | 98° |
| 2026-04-30 02:32 | 29.95650 | -95.27497 | 31203 ft | 539 kts | 89° |
| 2026-04-30 02:32 | 29.95676 | -95.23185 | 31588 ft | 536 kts | 85° |
| 2026-04-30 02:32 | 29.95776 | -95.18904 | 31954 ft | 535 kts | 85° |
| 2026-04-30 02:33 | 29.95889 | -95.14623 | 32298 ft | 534 kts | 85° |
| 2026-04-30 02:33 | 29.95993 | -95.10337 | 32661 ft | 533 kts | 85° |
| 2026-04-30 02:33 | 29.96079 | -95.06077 | 33054 ft | 531 kts | 85° |
| 2026-04-30 02:33 | 29.96126 | -95.03255 | 33306 ft | 530 kts | 85° |
| 2026-04-30 02:34 | 29.96187 | -94.99015 | 33678 ft | 529 kts | 85° |
| 2026-04-30 02:34 | 29.96238 | -94.94783 | 34008 ft | 528 kts | 85° |
| 2026-04-30 02:34 | 29.96285 | -94.90548 | 34283 ft | 528 kts | 85° |
| 2026-04-30 02:34 | 29.96346 | -94.84882 | 34578 ft | 529 kts | 85° |
| 2026-04-30 02:35 | 29.96376 | -94.82074 | 34734 ft | 529 kts | 85° |
| 2026-04-30 02:35 | 29.96420 | -94.77847 | 34922 ft | 530 kts | 85° |
| 2026-04-30 02:35 | 29.96465 | -94.73576 | 34897 ft | 533 kts | 85° |
| 2026-04-30 02:36 | 29.96550 | -94.65049 | 34896 ft | 529 kts | 85° |
| 2026-04-30 02:36 | 29.96628 | -94.56592 | 34911 ft | 526 kts | 85° |
| 2026-04-30 02:37 | 29.96702 | -94.48161 | 34920 ft | 525 kts | 85° |
| 2026-04-30 02:37 | 29.96772 | -94.39757 | 34927 ft | 525 kts | 85° |
| 2026-04-30 02:38 | 29.96835 | -94.31394 | 34932 ft | 525 kts | 85° |
| 2026-04-30 02:38 | 29.96893 | -94.22975 | 34936 ft | 525 kts | 85° |
| 2026-04-30 02:39 | 29.96945 | -94.14538 | 34935 ft | 525 kts | 85° |
| 2026-04-30 02:39 | 29.96993 | -94.06096 | 34934 ft | 526 kts | 85° |
| 2026-04-30 02:40 | 29.97035 | -93.97657 | 34934 ft | 526 kts | 85° |
| 2026-04-30 02:40 | 29.97071 | -93.89211 | 34934 ft | 526 kts | 85° |
| 2026-04-30 02:41 | 29.97102 | -93.80778 | 34960 ft | 527 kts | 85° |
| 2026-04-30 02:41 | 29.97128 | -93.72328 | 34959 ft | 526 kts | 86° |
| 2026-04-30 02:42 | 29.97148 | -93.63931 | 34950 ft | 526 kts | 86° |
| 2026-04-30 02:42 | 29.97163 | -93.55445 | 34948 ft | 526 kts | 86° |
| 2026-04-30 02:43 | 29.97172 | -93.47069 | 34953 ft | 525 kts | 86° |
| 2026-04-30 02:43 | 29.97176 | -93.38647 | 34957 ft | 525 kts | 86° |
| 2026-04-30 02:44 | 29.97175 | -93.30222 | 34950 ft | 524 kts | 86° |
| 2026-04-30 02:44 | 29.97169 | -93.21826 | 34953 ft | 524 kts | 86° |
| 2026-04-30 02:45 | 29.97157 | -93.13434 | 34950 ft | 523 kts | 86° |
| 2026-04-30 02:45 | 29.97140 | -93.05047 | 34950 ft | 522 kts | 86° |
| 2026-04-30 02:46 | 29.97119 | -92.96674 | 34949 ft | 522 kts | 86° |
| 2026-04-30 02:46 | 29.97481 | -92.88372 | 34945 ft | 513 kts | 73° |
| 2026-04-30 02:47 | 29.99027 | -92.80387 | 34948 ft | 510 kts | 71° |
| 2026-04-30 02:47 | 30.00672 | -92.72422 | 34946 ft | 510 kts | 71° |
| 2026-04-30 02:48 | 30.02263 | -92.64458 | 34947 ft | 510 kts | 71° |
| 2026-04-30 02:48 | 30.03811 | -92.56475 | 34949 ft | 510 kts | 71° |
| 2026-04-30 02:49 | 30.05347 | -92.48463 | 34948 ft | 510 kts | 72° |
| 2026-04-30 02:49 | 30.06878 | -92.40460 | 34961 ft | 511 kts | 72° |
| 2026-04-30 02:50 | 30.08408 | -92.32446 | 34964 ft | 511 kts | 72° |
| 2026-04-30 02:50 | 30.09934 | -92.24429 | 34969 ft | 511 kts | 72° |
| 2026-04-30 02:51 | 30.11443 | -92.16474 | 34967 ft | 512 kts | 72° |
| 2026-04-30 02:51 | 30.12965 | -92.08426 | 34979 ft | 512 kts | 72° |
| 2026-04-30 02:52 | 30.14478 | -92.00389 | 34991 ft | 512 kts | 72° |
| 2026-04-30 02:52 | 30.15986 | -91.92355 | 34991 ft | 513 kts | 72° |
| 2026-04-30 02:53 | 30.17496 | -91.84284 | 34984 ft | 513 kts | 72° |
| 2026-04-30 02:53 | 30.18999 | -91.76219 | 34960 ft | 513 kts | 72° |
| 2026-04-30 02:54 | 30.20495 | -91.68162 | 34961 ft | 513 kts | 72° |
| 2026-04-30 02:54 | 30.21989 | -91.60086 | 34958 ft | 513 kts | 72° |
| 2026-04-30 02:55 | 30.23477 | -91.52014 | 34960 ft | 513 kts | 73° |
| 2026-04-30 02:55 | 30.24957 | -91.43954 | 34961 ft | 513 kts | 73° |
| 2026-04-30 02:56 | 30.26436 | -91.35875 | 34965 ft | 512 kts | 73° |
| 2026-04-30 02:56 | 30.27908 | -91.27802 | 34971 ft | 512 kts | 73° |
| 2026-04-30 02:57 | 30.29361 | -91.19803 | 34994 ft | 511 kts | 73° |
| 2026-04-30 02:57 | 30.30816 | -91.11766 | 34980 ft | 511 kts | 73° |
| 2026-04-30 02:58 | 30.32266 | -91.03722 | 34984 ft | 510 kts | 73° |
| 2026-04-30 02:58 | 30.33712 | -90.95679 | 34988 ft | 509 kts | 73° |
| 2026-04-30 02:59 | 30.35147 | -90.87660 | 34983 ft | 509 kts | 73° |
| 2026-04-30 02:59 | 30.36579 | -90.79630 | 34984 ft | 508 kts | 73° |
| 2026-04-30 03:00 | 30.38003 | -90.71619 | 34982 ft | 508 kts | 73° |
| 2026-04-30 03:00 | 30.39425 | -90.63587 | 35006 ft | 508 kts | 73° |
| 2026-04-30 03:01 | 30.40840 | -90.55563 | 35017 ft | 508 kts | 73° |
| 2026-04-30 03:01 | 30.42243 | -90.47583 | 35027 ft | 508 kts | 73° |
| 2026-04-30 03:02 | 30.43649 | -90.39551 | 35045 ft | 509 kts | 73° |
| 2026-04-30 03:02 | 30.45051 | -90.31509 | 35048 ft | 510 kts | 73° |
| 2026-04-30 03:03 | 30.46451 | -90.23454 | 35041 ft | 511 kts | 73° |
| 2026-04-30 03:03 | 30.49045 | -90.11529 | 35033 ft | 507 kts | 68° |
| 2026-04-30 03:04 | 30.51121 | -90.03702 | 35028 ft | 508 kts | 67° |
| 2026-04-30 03:04 | 30.53181 | -89.95843 | 35029 ft | 510 kts | 68° |
| 2026-04-30 03:05 | 30.55199 | -89.87948 | 35025 ft | 511 kts | 68° |
| 2026-04-30 03:05 | 30.57199 | -89.80026 | 35029 ft | 512 kts | 68° |
| 2026-04-30 03:06 | 30.59193 | -89.72101 | 35027 ft | 512 kts | 68° |
| 2026-04-30 03:06 | 30.61192 | -89.64144 | 35029 ft | 513 kts | 68° |
| 2026-04-30 03:07 | 30.63183 | -89.56208 | 35029 ft | 513 kts | 69° |
| 2026-04-30 03:07 | 30.65173 | -89.48250 | 35023 ft | 513 kts | 69° |
| 2026-04-30 03:08 | 30.67154 | -89.40304 | 35024 ft | 512 kts | 69° |
| 2026-04-30 03:08 | 30.69132 | -89.32350 | 35024 ft | 512 kts | 69° |
| 2026-04-30 03:09 | 30.71095 | -89.24433 | 35028 ft | 512 kts | 69° |
| 2026-04-30 03:09 | 30.73060 | -89.16485 | 35028 ft | 512 kts | 69° |
| 2026-04-30 03:10 | 30.75025 | -89.08514 | 35029 ft | 512 kts | 69° |
| 2026-04-30 03:10 | 30.76985 | -89.00540 | 35026 ft | 513 kts | 69° |
| 2026-04-30 03:11 | 30.78939 | -88.92569 | 35026 ft | 513 kts | 69° |
| 2026-04-30 03:11 | 30.80893 | -88.84575 | 35023 ft | 514 kts | 69° |
| 2026-04-30 03:12 | 30.82841 | -88.76579 | 35016 ft | 515 kts | 69° |
| 2026-04-30 03:12 | 30.84779 | -88.68603 | 35017 ft | 516 kts | 69° |
| 2026-04-30 03:13 | 30.86736 | -88.60524 | 35023 ft | 517 kts | 69° |
| 2026-04-30 03:13 | 30.88675 | -88.52497 | 35017 ft | 518 kts | 69° |
| 2026-04-30 03:14 | 30.90634 | -88.44361 | 35014 ft | 519 kts | 69° |
| 2026-04-30 03:14 | 30.92739 | -88.36402 | 35010 ft | 514 kts | 61° |
| 2026-04-30 03:15 | 30.96065 | -88.29159 | 35019 ft | 505 kts | 52° |
| 2026-04-30 03:15 | 30.99622 | -88.22112 | 35012 ft | 505 kts | 52° |
| 2026-04-30 03:16 | 31.03147 | -88.15011 | 35010 ft | 507 kts | 53° |
| 2026-04-30 03:16 | 31.06628 | -88.07871 | 35008 ft | 508 kts | 53° |
| 2026-04-30 03:17 | 31.10120 | -88.00665 | 35012 ft | 508 kts | 53° |
| 2026-04-30 03:17 | 31.13600 | -87.93479 | 35012 ft | 509 kts | 53° |
| 2026-04-30 03:18 | 31.17067 | -87.86314 | 35010 ft | 509 kts | 53° |
| 2026-04-30 03:18 | 31.20548 | -87.79105 | 35015 ft | 510 kts | 53° |
| 2026-04-30 03:19 | 31.24028 | -87.71885 | 35018 ft | 510 kts | 53° |
| 2026-04-30 03:19 | 31.27501 | -87.64665 | 35009 ft | 510 kts | 53° |
| 2026-04-30 03:20 | 31.31024 | -87.57462 | 35013 ft | 506 kts | 49° |
| 2026-04-30 03:20 | 31.34468 | -87.52006 | 35022 ft | 500 kts | 44° |
| 2026-04-30 03:21 | 31.38755 | -87.45607 | 35026 ft | 499 kts | 43° |
| 2026-04-30 03:21 | 31.43038 | -87.39188 | 35020 ft | 500 kts | 44° |
| 2026-04-30 03:22 | 31.47282 | -87.32737 | 35016 ft | 501 kts | 44° |
| 2026-04-30 03:22 | 31.51520 | -87.26248 | 35015 ft | 501 kts | 44° |
| 2026-04-30 03:23 | 31.55737 | -87.19772 | 35009 ft | 501 kts | 44° |
| 2026-04-30 03:23 | 31.59979 | -87.13253 | 35003 ft | 502 kts | 44° |
| 2026-04-30 03:24 | 31.64209 | -87.06742 | 34993 ft | 502 kts | 44° |
| 2026-04-30 03:24 | 31.68443 | -87.00217 | 34969 ft | 502 kts | 44° |
| 2026-04-30 03:25 | 31.72670 | -86.93690 | 34946 ft | 502 kts | 44° |
| 2026-04-30 03:25 | 31.76876 | -86.87184 | 34946 ft | 502 kts | 44° |
| 2026-04-30 03:26 | 31.81124 | -86.80603 | 34951 ft | 503 kts | 44° |
| 2026-04-30 03:26 | 31.85347 | -86.74049 | 34968 ft | 503 kts | 44° |
| 2026-04-30 03:27 | 31.89572 | -86.67480 | 34974 ft | 503 kts | 44° |
| 2026-04-30 03:27 | 31.93794 | -86.60905 | 34970 ft | 503 kts | 44° |
| 2026-04-30 03:28 | 31.97982 | -86.54373 | 34957 ft | 503 kts | 44° |
| 2026-04-30 03:28 | 32.02203 | -86.47776 | 34951 ft | 504 kts | 44° |
| 2026-04-30 03:29 | 32.06414 | -86.41185 | 34959 ft | 504 kts | 44° |
| 2026-04-30 03:29 | 32.10635 | -86.34566 | 34980 ft | 504 kts | 45° |
| 2026-04-30 03:30 | 32.14853 | -86.27940 | 34985 ft | 505 kts | 45° |
| 2026-04-30 03:30 | 32.19067 | -86.21309 | 34987 ft | 505 kts | 44° |
| 2026-04-30 03:31 | 32.23289 | -86.14653 | 34981 ft | 506 kts | 44° |
| 2026-04-30 03:31 | 32.27503 | -86.07998 | 34962 ft | 506 kts | 44° |
| 2026-04-30 03:32 | 32.31730 | -86.01312 | 34961 ft | 507 kts | 44° |
| 2026-04-30 03:32 | 32.35951 | -85.94623 | 34958 ft | 508 kts | 44° |
| 2026-04-30 03:33 | 32.40143 | -85.87968 | 34950 ft | 508 kts | 44° |
| 2026-04-30 03:33 | 32.44375 | -85.81239 | 34958 ft | 509 kts | 44° |
| 2026-04-30 03:34 | 32.48629 | -85.74461 | 34963 ft | 510 kts | 45° |
| 2026-04-30 03:34 | 32.52825 | -85.67763 | 34977 ft | 510 kts | 45° |
| 2026-04-30 03:35 | 32.57052 | -85.61005 | 34999 ft | 510 kts | 45° |
| 2026-04-30 03:35 | 32.61277 | -85.54237 | 35013 ft | 510 kts | 45° |
| 2026-04-30 03:36 | 32.65490 | -85.47476 | 35014 ft | 510 kts | 45° |
| 2026-04-30 03:36 | 32.69719 | -85.40678 | 35017 ft | 510 kts | 45° |
| 2026-04-30 03:37 | 32.73920 | -85.33912 | 34999 ft | 510 kts | 45° |
| 2026-04-30 03:37 | 32.78135 | -85.27113 | 34982 ft | 510 kts | 45° |
| 2026-04-30 03:38 | 32.82331 | -85.20329 | 34975 ft | 509 kts | 46° |
| 2026-04-30 03:38 | 32.86521 | -85.13543 | 34988 ft | 509 kts | 46° |
| 2026-04-30 03:39 | 32.90704 | -85.06757 | 34987 ft | 508 kts | 46° |
| 2026-04-30 03:39 | 32.94876 | -84.99976 | 34994 ft | 507 kts | 46° |
| 2026-04-30 03:40 | 32.99042 | -84.93195 | 34991 ft | 507 kts | 46° |
| 2026-04-30 03:40 | 33.03208 | -84.86401 | 34979 ft | 507 kts | 46° |
| 2026-04-30 03:41 | 33.07357 | -84.79621 | 34971 ft | 507 kts | 46° |
| 2026-04-30 03:41 | 33.11528 | -84.72795 | 34967 ft | 508 kts | 46° |
| 2026-04-30 03:42 | 33.15682 | -84.65982 | 34975 ft | 509 kts | 46° |
| 2026-04-30 03:42 | 33.19820 | -84.59183 | 34973 ft | 510 kts | 46° |
| 2026-04-30 03:43 | 33.23984 | -84.52329 | 34975 ft | 511 kts | 46° |
| 2026-04-30 03:43 | 33.28150 | -84.45459 | 34979 ft | 513 kts | 46° |
| 2026-04-30 03:44 | 33.32347 | -84.38525 | 35011 ft | 514 kts | 46° |
| 2026-04-30 03:44 | 33.36540 | -84.31583 | 35017 ft | 516 kts | 46° |
| 2026-04-30 03:45 | 33.40748 | -84.24603 | 35023 ft | 517 kts | 46° |
| 2026-04-30 03:45 | 33.44954 | -84.17612 | 35002 ft | 518 kts | 46° |
| 2026-04-30 03:46 | 33.49164 | -84.10603 | 34982 ft | 519 kts | 46° |
| 2026-04-30 03:46 | 33.53381 | -84.03567 | 34951 ft | 520 kts | 46° |
| 2026-04-30 03:47 | 33.57591 | -83.96530 | 34956 ft | 520 kts | 46° |
| 2026-04-30 03:47 | 33.61807 | -83.89469 | 34952 ft | 520 kts | 46° |
| 2026-04-30 03:48 | 33.66022 | -83.82396 | 34951 ft | 520 kts | 46° |
| 2026-04-30 03:48 | 33.70228 | -83.75325 | 34954 ft | 520 kts | 46° |
| 2026-04-30 03:49 | 33.74356 | -83.68168 | 34942 ft | 523 kts | 49° |
| 2026-04-30 03:49 | 33.78261 | -83.60764 | 34949 ft | 524 kts | 50° |
| 2026-04-30 03:50 | 33.82088 | -83.53372 | 34947 ft | 524 kts | 50° |
| 2026-04-30 03:50 | 33.85972 | -83.45937 | 34942 ft | 524 kts | 50° |
| 2026-04-30 03:51 | 33.89895 | -83.38475 | 34943 ft | 524 kts | 50° |
| 2026-04-30 03:51 | 33.93773 | -83.31097 | 34946 ft | 524 kts | 50° |
| 2026-04-30 03:52 | 33.97669 | -83.23663 | 34944 ft | 525 kts | 50° |
| 2026-04-30 03:52 | 34.01567 | -83.16207 | 34938 ft | 525 kts | 50° |
| 2026-04-30 03:53 | 34.05458 | -83.08747 | 34921 ft | 526 kts | 50° |
| 2026-04-30 03:53 | 34.09352 | -83.01267 | 34926 ft | 526 kts | 50° |
| 2026-04-30 03:54 | 34.13242 | -82.93776 | 34937 ft | 527 kts | 50° |
| 2026-04-30 03:54 | 34.17132 | -82.86273 | 34939 ft | 527 kts | 50° |
| 2026-04-30 03:55 | 34.21018 | -82.78760 | 34935 ft | 528 kts | 50° |
| 2026-04-30 03:55 | 34.24887 | -82.71265 | 34927 ft | 529 kts | 50° |
| 2026-04-30 03:56 | 34.28776 | -82.63715 | 34908 ft | 529 kts | 50° |
| 2026-04-30 03:56 | 34.32670 | -82.56139 | 34914 ft | 530 kts | 50° |
| 2026-04-30 03:57 | 34.36562 | -82.48551 | 34904 ft | 531 kts | 50° |
| 2026-04-30 03:57 | 34.40450 | -82.40954 | 34906 ft | 531 kts | 50° |
| 2026-04-30 03:58 | 34.44339 | -82.33337 | 34906 ft | 532 kts | 50° |
| 2026-04-30 03:58 | 34.48234 | -82.25691 | 34899 ft | 532 kts | 50° |
| 2026-04-30 03:59 | 34.52125 | -82.18042 | 34901 ft | 533 kts | 50° |
| 2026-04-30 03:59 | 34.56314 | -82.10712 | 34919 ft | 526 kts | 44° |
| 2026-04-30 04:00 | 34.60719 | -82.03629 | 34918 ft | 525 kts | 44° |
| 2026-04-30 04:00 | 34.65117 | -81.96541 | 34909 ft | 526 kts | 44° |
| 2026-04-30 04:01 | 34.69482 | -81.89386 | 34896 ft | 528 kts | 45° |
| 2026-04-30 04:01 | 34.73828 | -81.82198 | 34884 ft | 528 kts | 45° |
| 2026-04-30 04:02 | 34.78196 | -81.74961 | 34894 ft | 532 kts | 45° |
| 2026-04-30 04:02 | 34.82560 | -81.67722 | 34890 ft | 536 kts | 45° |
| 2026-04-30 04:03 | 34.86973 | -81.60388 | 34878 ft | 538 kts | 45° |
| 2026-04-30 04:03 | 34.91397 | -81.53017 | 34872 ft | 539 kts | 45° |
| 2026-04-30 04:04 | 34.95813 | -81.45643 | 34879 ft | 538 kts | 45° |
| 2026-04-30 04:04 | 34.99477 | -81.39516 | 34874 ft | 538 kts | 45° |
| 2026-04-30 04:05 | 35.03879 | -81.32138 | 34884 ft | 537 kts | 45° |
| 2026-04-30 04:05 | 35.08263 | -81.24779 | 34879 ft | 536 kts | 45° |
| 2026-04-30 04:06 | 35.12644 | -81.17409 | 34901 ft | 536 kts | 45° |
| 2026-04-30 04:06 | 35.17014 | -81.10039 | 34898 ft | 535 kts | 45° |
| 2026-04-30 04:07 | 35.21381 | -81.02665 | 34902 ft | 534 kts | 45° |
| 2026-04-30 04:08 | 35.27886 | -80.91665 | 34896 ft | 534 kts | 45° |
| 2026-04-30 04:08 | 35.32267 | -80.84237 | 34924 ft | 534 kts | 45° |
| 2026-04-30 04:09 | 35.36585 | -80.76896 | 34927 ft | 534 kts | 45° |
| 2026-04-30 04:09 | 35.40927 | -80.69500 | 34942 ft | 534 kts | 45° |
| 2026-04-30 04:10 | 35.45258 | -80.62107 | 34929 ft | 534 kts | 45° |
| 2026-04-30 04:10 | 35.49594 | -80.54689 | 34910 ft | 534 kts | 45° |
| 2026-04-30 04:11 | 35.53919 | -80.47274 | 34909 ft | 534 kts | 45° |
| 2026-04-30 04:11 | 35.58243 | -80.39843 | 34907 ft | 534 kts | 45° |
| 2026-04-30 04:12 | 35.62557 | -80.32414 | 34906 ft | 534 kts | 45° |
| 2026-04-30 04:12 | 35.66863 | -80.24985 | 34907 ft | 534 kts | 45° |
| 2026-04-30 04:13 | 35.71162 | -80.17550 | 34906 ft | 533 kts | 45° |
| 2026-04-30 04:13 | 35.75461 | -80.10101 | 34899 ft | 533 kts | 45° |
| 2026-04-30 04:14 | 35.79750 | -80.02648 | 34912 ft | 533 kts | 45° |
| 2026-04-30 04:14 | 35.84025 | -79.95186 | 34913 ft | 533 kts | 45° |
| 2026-04-30 04:15 | 35.88295 | -79.87718 | 34897 ft | 533 kts | 45° |
| 2026-04-30 04:15 | 35.92540 | -79.80295 | 34893 ft | 532 kts | 45° |
| 2026-04-30 04:16 | 35.96873 | -79.72910 | 34886 ft | 531 kts | 44° |
| 2026-04-30 04:16 | 36.01234 | -79.65532 | 34885 ft | 531 kts | 44° |
| 2026-04-30 04:17 | 36.05570 | -79.58147 | 34897 ft | 531 kts | 45° |
| 2026-04-30 04:17 | 36.09891 | -79.50748 | 34904 ft | 530 kts | 45° |
| 2026-04-30 04:18 | 36.14207 | -79.43343 | 34899 ft | 530 kts | 45° |
| 2026-04-30 04:18 | 36.18523 | -79.35927 | 34892 ft | 530 kts | 45° |
| 2026-04-30 04:19 | 36.22827 | -79.28518 | 34883 ft | 530 kts | 45° |
| 2026-04-30 04:19 | 36.27125 | -79.21100 | 34893 ft | 530 kts | 45° |
| 2026-04-30 04:20 | 36.31390 | -79.13722 | 34901 ft | 530 kts | 45° |
| 2026-04-30 04:20 | 36.35673 | -79.06296 | 34911 ft | 529 kts | 45° |
| 2026-04-30 04:21 | 36.39954 | -78.98858 | 34901 ft | 529 kts | 45° |
| 2026-04-30 04:21 | 36.44228 | -78.91417 | 34892 ft | 529 kts | 46° |
| 2026-04-30 04:22 | 36.48489 | -78.83970 | 34880 ft | 529 kts | 46° |
| 2026-04-30 04:22 | 36.52731 | -78.76480 | 34868 ft | 529 kts | 46° |
| 2026-04-30 04:23 | 36.56953 | -78.69013 | 34866 ft | 528 kts | 46° |
| 2026-04-30 04:23 | 36.61776 | -78.62249 | 34888 ft | 519 kts | 33° |
| 2026-04-30 04:24 | 36.67045 | -78.56091 | 34882 ft | 520 kts | 33° |
| 2026-04-30 04:24 | 36.72320 | -78.49925 | 34881 ft | 521 kts | 33° |
| 2026-04-30 04:25 | 36.77542 | -78.43705 | 34879 ft | 516 kts | 34° |
| 2026-04-30 04:25 | 36.82705 | -78.37496 | 34878 ft | 515 kts | 34° |
| 2026-04-30 04:26 | 36.87873 | -78.31276 | 34881 ft | 517 kts | 34° |
| 2026-04-30 04:26 | 36.93058 | -78.25027 | 34877 ft | 518 kts | 34° |
| 2026-04-30 04:27 | 36.98246 | -78.18761 | 34855 ft | 519 kts | 34° |
| 2026-04-30 04:27 | 37.03426 | -78.12490 | 34859 ft | 518 kts | 34° |
| 2026-04-30 04:27 | 37.06014 | -78.09351 | 34713 ft | 517 kts | 34° |
| 2026-04-30 04:28 | 37.08593 | -78.06220 | 34359 ft | 515 kts | 34° |
| 2026-04-30 04:28 | 37.11159 | -78.03102 | 33918 ft | 515 kts | 34° |
| 2026-04-30 04:28 | 37.13735 | -77.99973 | 33345 ft | 515 kts | 35° |
| 2026-04-30 04:28 | 37.16304 | -77.96847 | 32749 ft | 515 kts | 35° |
| 2026-04-30 04:29 | 37.18840 | -77.93759 | 32149 ft | 513 kts | 35° |
| 2026-04-30 04:29 | 37.21380 | -77.90657 | 31545 ft | 507 kts | 36° |
| 2026-04-30 04:29 | 37.23895 | -77.87581 | 30955 ft | 503 kts | 36° |
| 2026-04-30 04:29 | 37.26388 | -77.84533 | 30377 ft | 497 kts | 36° |
| 2026-04-30 04:30 | 37.28829 | -77.81539 | 29780 ft | 484 kts | 36° |
| 2026-04-30 04:30 | 37.31199 | -77.78628 | 29077 ft | 472 kts | 36° |
| 2026-04-30 04:30 | 37.33530 | -77.75771 | 28313 ft | 464 kts | 36° |
| 2026-04-30 04:30 | 37.35825 | -77.72960 | 27569 ft | 456 kts | 37° |
| 2026-04-30 04:31 | 37.38078 | -77.70199 | 26866 ft | 449 kts | 37° |
| 2026-04-30 04:31 | 37.40299 | -77.67476 | 26174 ft | 446 kts | 37° |
| 2026-04-30 04:31 | 37.42532 | -77.64741 | 25509 ft | 449 kts | 38° |
| 2026-04-30 04:31 | 37.44769 | -77.61996 | 24845 ft | 449 kts | 38° |
| 2026-04-30 04:32 | 37.47001 | -77.59250 | 24206 ft | 449 kts | 39° |
| 2026-04-30 04:32 | 37.49233 | -77.56496 | 23569 ft | 448 kts | 39° |
| 2026-04-30 04:32 | 37.51456 | -77.53750 | 22843 ft | 447 kts | 40° |
| 2026-04-30 04:32 | 37.53671 | -77.51014 | 22106 ft | 445 kts | 40° |
| 2026-04-30 04:33 | 37.55883 | -77.48279 | 21383 ft | 443 kts | 40° |
| 2026-04-30 04:33 | 37.58160 | -77.45702 | 20677 ft | 436 kts | 30° |
| 2026-04-30 04:33 | 37.60815 | -77.44014 | 20002 ft | 422 kts | 12° |
| 2026-04-30 04:33 | 37.63625 | -77.43104 | 19353 ft | 415 kts | 8° |
| 2026-04-30 04:34 | 37.66428 | -77.42311 | 18773 ft | 410 kts | 7° |
| 2026-04-30 04:34 | 37.69178 | -77.41526 | 18245 ft | 398 kts | 8° |
| 2026-04-30 04:34 | 37.71823 | -77.40737 | 17667 ft | 384 kts | 8° |
| 2026-04-30 04:34 | 37.74364 | -77.39956 | 17192 ft | 369 kts | 9° |
| 2026-04-30 04:35 | 37.76844 | -77.39189 | 16733 ft | 365 kts | 9° |
| 2026-04-30 04:35 | 37.79297 | -77.38432 | 16286 ft | 362 kts | 9° |
| 2026-04-30 04:35 | 37.81735 | -77.37679 | 15836 ft | 359 kts | 9° |
| 2026-04-30 04:35 | 37.84156 | -77.36930 | 15391 ft | 357 kts | 9° |
| 2026-04-30 04:36 | 37.86555 | -77.36188 | 14952 ft | 354 kts | 9° |
| 2026-04-30 04:36 | 37.88944 | -77.35448 | 14527 ft | 352 kts | 9° |
| 2026-04-30 04:36 | 37.91318 | -77.34714 | 14104 ft | 350 kts | 9° |
| 2026-04-30 04:36 | 37.93676 | -77.33990 | 13664 ft | 348 kts | 9° |
| 2026-04-30 04:37 | 37.96024 | -77.33268 | 13207 ft | 346 kts | 9° |
| 2026-04-30 04:37 | 37.98361 | -77.32550 | 12742 ft | 344 kts | 9° |
| 2026-04-30 04:37 | 38.00681 | -77.31836 | 12281 ft | 342 kts | 9° |
| 2026-04-30 04:37 | 38.02956 | -77.31134 | 11827 ft | 340 kts | 10° |
| 2026-04-30 04:38 | 38.05247 | -77.30427 | 11389 ft | 338 kts | 10° |
| 2026-04-30 04:38 | 38.07515 | -77.29727 | 10951 ft | 335 kts | 10° |
| 2026-04-30 04:38 | 38.09771 | -77.29021 | 10519 ft | 332 kts | 11° |
| 2026-04-30 04:38 | 38.12010 | -77.28317 | 10092 ft | 330 kts | 11° |
| 2026-04-30 04:39 | 38.14229 | -77.27618 | 9668 ft | 327 kts | 11° |
| 2026-04-30 04:39 | 38.16432 | -77.26926 | 9195 ft | 325 kts | 11° |
| 2026-04-30 04:39 | 38.18621 | -77.26237 | 8734 ft | 323 kts | 11° |
| 2026-04-30 04:39 | 38.20791 | -77.25543 | 8276 ft | 321 kts | 12° |
| 2026-04-30 04:40 | 38.22929 | -77.24761 | 7818 ft | 319 kts | 14° |
| 2026-04-30 04:40 | 38.25047 | -77.23943 | 7373 ft | 317 kts | 14° |
| 2026-04-30 04:40 | 38.27146 | -77.23129 | 7063 ft | 311 kts | 14° |
| 2026-04-30 04:40 | 38.29231 | -77.22327 | 7029 ft | 315 kts | 14° |
| 2026-04-30 04:41 | 38.31318 | -77.21531 | 7006 ft | 311 kts | 14° |
| 2026-04-30 04:41 | 38.33378 | -77.20749 | 7009 ft | 309 kts | 14° |
| 2026-04-30 04:41 | 38.35441 | -77.19967 | 7007 ft | 310 kts | 14° |
| 2026-04-30 04:41 | 38.37504 | -77.19184 | 6992 ft | 309 kts | 14° |
| 2026-04-30 04:42 | 38.39549 | -77.18398 | 6981 ft | 302 kts | 14° |
| 2026-04-30 04:42 | 38.41508 | -77.17639 | 6979 ft | 288 kts | 14° |
| 2026-04-30 04:42 | 38.43382 | -77.16913 | 6975 ft | 277 kts | 14° |
| 2026-04-30 04:42 | 38.45216 | -77.16205 | 6978 ft | 274 kts | 14° |
| 2026-04-30 04:43 | 38.47045 | -77.15500 | 6984 ft | 276 kts | 14° |
| 2026-04-30 04:43 | 38.48886 | -77.14789 | 6991 ft | 277 kts | 14° |
| 2026-04-30 04:43 | 38.50727 | -77.14078 | 6991 ft | 277 kts | 14° |
| 2026-04-30 04:43 | 38.52576 | -77.13364 | 6985 ft | 278 kts | 14° |
| 2026-04-30 04:44 | 38.54429 | -77.12646 | 6982 ft | 278 kts | 14° |
| 2026-04-30 04:44 | 38.56282 | -77.11929 | 6981 ft | 278 kts | 14° |
| 2026-04-30 04:44 | 38.58128 | -77.11214 | 6981 ft | 278 kts | 14° |
| 2026-04-30 04:44 | 38.59977 | -77.10502 | 6980 ft | 277 kts | 14° |
| 2026-04-30 04:45 | 38.61819 | -77.09793 | 6978 ft | 277 kts | 14° |
| 2026-04-30 04:45 | 38.63661 | -77.09083 | 6983 ft | 276 kts | 14° |
| 2026-04-30 04:45 | 38.65498 | -77.08375 | 6983 ft | 276 kts | 14° |
| 2026-04-30 04:45 | 38.67340 | -77.07665 | 6977 ft | 276 kts | 14° |
| 2026-04-30 04:46 | 38.69184 | -77.07013 | 6977 ft | 274 kts | 7° |
| 2026-04-30 04:46 | 38.71073 | -77.06754 | 6984 ft | 272 kts | 1° |
| 2026-04-30 04:46 | 38.72967 | -77.06609 | 6929 ft | 275 kts | 1° |
| 2026-04-30 04:46 | 38.74896 | -77.06453 | 6632 ft | 278 kts | 1° |
| 2026-04-30 04:47 | 38.76784 | -77.06701 | 6361 ft | 271 kts | 340° |
| 2026-04-30 04:47 | 38.78440 | -77.07795 | 6083 ft | 266 kts | 326° |
| 2026-04-30 04:47 | 38.79982 | -77.09078 | 5776 ft | 263 kts | 325° |
| 2026-04-30 04:47 | 38.81512 | -77.10350 | 5471 ft | 261 kts | 326° |
| 2026-04-30 04:48 | 38.83032 | -77.11614 | 5161 ft | 260 kts | 324° |
| 2026-04-30 04:48 | 38.84408 | -77.13086 | 4868 ft | 254 kts | 315° |
| 2026-04-30 04:48 | 38.85643 | -77.14657 | 4559 ft | 246 kts | 313° |
| 2026-04-30 04:48 | 38.86829 | -77.16192 | 4235 ft | 240 kts | 313° |
| 2026-04-30 04:49 | 38.88007 | -77.17699 | 4060 ft | 235 kts | 314° |
| 2026-04-30 04:49 | 38.89151 | -77.19141 | 4013 ft | 224 kts | 314° |
| 2026-04-30 04:49 | 38.90236 | -77.20501 | 4008 ft | 211 kts | 314° |
| 2026-04-30 04:49 | 38.91247 | -77.21763 | 4007 ft | 195 kts | 314° |
| 2026-04-30 04:50 | 38.92206 | -77.22959 | 3758 ft | 192 kts | 313° |
| 2026-04-30 04:50 | 38.93166 | -77.24157 | 3465 ft | 193 kts | 314° |
| 2026-04-30 04:50 | 38.94333 | -77.24951 | 3130 ft | 193 kts | 350° |
| 2026-04-30 04:50 | 38.95658 | -77.24697 | 2844 ft | 197 kts | 25° |
| 2026-04-30 04:51 | 38.96668 | -77.23502 | 2790 ft | 205 kts | 60° |
| 2026-04-30 04:51 | 38.96997 | -77.21757 | 2736 ft | 202 kts | 92° |
| 2026-04-30 04:51 | 38.96944 | -77.20574 | 2729 ft | 200 kts | 97° |
| 2026-04-30 04:51 | 38.96807 | -77.18807 | 2732 ft | 198 kts | 98° |
| 2026-04-30 04:52 | 38.96667 | -77.17091 | 2700 ft | 187 kts | 98° |
| 2026-04-30 04:52 | 38.96428 | -77.15511 | 2682 ft | 174 kts | 123° |
| 2026-04-30 04:52 | 38.95636 | -77.14398 | 2579 ft | 173 kts | 143° |
| 2026-04-30 04:52 | 38.94731 | -77.13382 | 2341 ft | 172 kts | 144° |
| 2026-04-30 04:53 | 38.93840 | -77.12386 | 2107 ft | 168 kts | 144° |
| 2026-04-30 04:53 | 38.92952 | -77.11456 | 1883 ft | 159 kts | 151° |
| 2026-04-30 04:53 | 38.92053 | -77.10710 | 1651 ft | 148 kts | 154° |
| 2026-04-30 04:53 | 38.91194 | -77.10044 | 1469 ft | 145 kts | 155° |
| 2026-04-30 04:54 | 38.90565 | -77.09006 | 1255 ft | 155 kts | 109° |
| 2026-04-30 04:54 | 38.90253 | -77.07677 | 1053 ft | 156 kts | 114° |
| 2026-04-30 04:54 | 38.89880 | -77.06412 | 901 ft | 148 kts | 131° |
| 2026-04-30 04:54 | 38.89102 | -77.05569 | 774 ft | 150 kts | 142° |
| 2026-04-30 04:55 | 38.88302 | -77.04698 | 557 ft | 151 kts | 138° |
| 2026-04-30 04:55 | 38.87420 | -77.03997 | 373 ft | 149 kts | 162° |
| 2026-04-30 04:55 | 38.86374 | -77.03898 | 150 ft | 153 kts | 178° |
| 2026-04-30 04:55 | 38.85367 | -77.03800 | 27 ft | 135 kts | 173° |
| 2026-04-30 04:56 | 38.84579 | -77.03716 | 20 ft | 84 kts | 176° |
| 2026-04-30 04:56 | 38.84235 | -77.03696 | 19 ft | 12 kts | 213° |
| 2026-04-30 04:56 | 38.84227 | -77.03794 | 22 ft | 12 kts | 306° |
| 2026-04-30 04:56 | 38.84305 | -77.03831 | 26 ft | 12 kts | 354° |
| 2026-04-30 04:57 | 38.84382 | -77.03859 | 23 ft | 12 kts | 314° |
| 2026-04-30 04:57 | 38.84401 | -77.03956 | 23 ft | 11 kts | 289° |
| 2026-04-30 04:57 | 38.84466 | -77.04002 | 27 ft | 12 kts | 354° |
| 2026-04-30 04:57 | 38.84569 | -77.04019 | 25 ft | 17 kts | 345° |
| 2026-04-30 04:58 | 38.84680 | -77.04010 | 20 ft | 0 kts | 25° |
| 2026-04-30 04:58 | 38.84682 | -77.04008 | 20 ft | 1 kts | 25° |
| 2026-04-30 04:58 | 38.84729 | -77.03971 | 20 ft | 15 kts | 49° |
| 2026-04-30 04:59 | 38.84761 | -77.03913 | 21 ft | 7 kts | 38° |
| 2026-04-30 04:59 | 38.84810 | -77.03892 | 19 ft | 8 kts | 2° |
| 2026-04-30 04:59 | 38.84866 | -77.03899 | 17 ft | 5 kts | 332° |
| 2026-04-30 04:59 | 38.84875 | -77.03936 | 18 ft | 5 kts | 256° |
| 2026-04-30 05:00 | 38.84849 | -77.03954 | 18 ft | 4 kts | 176° |
| 2026-04-30 05:00 | 38.84807 | -77.03949 | 19 ft | 9 kts | 178° |
| 2026-04-30 05:00 | 38.84740 | -77.03974 | 20 ft | 11 kts | 205° |
| 2026-04-30 05:00 | 38.84688 | -77.04034 | 20 ft | 12 kts | 243° |
| 2026-04-30 05:01 | 38.84696 | -77.04135 | 22 ft | 2 kts | 313° |
| 2026-04-30 05:01 | 38.84707 | -77.04144 | 22 ft | 2 kts | 326° |
| 2026-04-30 05:01 | 38.84733 | -77.04181 | 23 ft | 1 kts | 282° |
| 2026-04-30 05:01 | 38.84726 | -77.04207 | 22 ft | 4 kts | 239° |
| 2026-04-30 05:02 | 38.84719 | -77.04219 | 25 ft | 0 kts | 235° |